Mellon — NMEL — position and weather

sailwx.info

Track history (hours):
 
Tides and Currents Weather Stations Pressure Air Temp Water Temp Dewpoint Dewpoint Depression Visibility Wind Speed Wind Dir Waves Ship Positions

Mellon

Last reported at 2018-May-05 09:49 UTC. Time now 2018-Jun-25 08:01 UTC.
Position N 48°43' W 126°33'.
Warning: this ship's position is 50 days out of date.

Type: Law enforcement. MMSI: 367248000.

Date/timePositionNaut miles runAvg speedWind from/ knotsBaromVisibWave heightAir tempDewpointWater temp
2018-May-05 09:49N 48°43' W 126°33'413.6
2018-May-05 09:30N 48°42' W 126°27'713.6
2018-May-05 09:00N 48°41' W 126°17'713.6
2018-May-05 08:31N 48°39' W 126°07'713.4
2018-May-05 08:00N 48°38' W 125°57'713.6
2018-May-05 07:30N 48°36' W 125°47'714.1
2018-May-05 07:00N 48°35' W 125°37'713.6
2018-May-05 06:28N 48°33' W 125°26'713.9
2018-May-05 05:58N 48°32' W 125°16'714.2
2018-May-05 05:30N 48°31' W 125°06'714.7
2018-May-05 05:01N 48°31' W 124°55'714.1
2018-May-05 04:30N 48°31' W 124°44'713.8
2018-May-05 04:00N 48°28' W 124°35'713.6
2018-May-05 03:30N 48°26' W 124°25'713.1
2018-May-05 03:00N 48°23' W 124°16'5011.2
2018-May-04 22:34N 48°17' W 123°02'4 4.3
2018-May-04 21:35N 48°14' W 122°56'1 7.8
2018-May-04 21:29N 48°14' W 122°58'1 1.8
2018-May-04 20:54N 48°15' W 122°56'4 4.3
2018-May-04 20:04N 48°16' W 123°01'1 4.6
2018-May-04 19:57N 48°17' W 123°01'4 8.5
2018-May-04 19:30N 48°20' W 122°58'3 5.7
2018-May-04 19:00N 48°22' W 122°55'1 1.3
2018-May-04 18:30N 48°23' W 122°54'0 0.5
2018-May-04 18:00N 48°23' W 122°55'1 1.2
2018-May-04 17:31N 48°22' W 122°54'1 2.7
2018-May-04 17:00N 48°22' W 122°52'2 3.7
2018-May-04 16:30N 48°21' W 122°54'712.2
2018-May-04 15:55N 48°16' W 123°01'3 5.9
2018-May-04 15:29N 48°15' W 123°04'4 2.0
2018-May-04 13:23N 48°15' W 122°58'2 4.9
2018-May-04 12:58N 48°15' W 123°01'2 4.9
2018-May-04 12:30N 48°15' W 123°05'5 2.8
2018-May-04 10:35N 48°15' W 122°56'0 4.4
2018-May-04 10:30N 48°15' W 122°57'3 4.7
2018-May-04 09:57N 48°15' W 123°01'2 4.4
2018-May-04 09:30N 48°15' W 123°04'5 2.6
2018-May-04 07:31N 48°15' W 122°56'0 5.5
2018-May-04 07:29N 48°15' W 122°56'2 4.7
2018-May-04 06:58N 48°15' W 122°60'2 4.9
2018-May-04 06:30N 48°15' W 123°03'5 9.6
2018-May-04 06:01N 48°15' W 123°10'23 3.7
2018-May-03 23:38N 48°05' W 122°39'523.8
2018-May-03 23:26N 48°01' W 122°37'921.4
2018-May-03 23:01N 47°54' W 122°28'612.5
2018-May-03 22:30N 47°48' W 122°26'611.7
2018-May-03 22:00N 47°42' W 122°27'4 7.8
2018-May-03 21:30N 47°38' W 122°26'4 8.4
2018-May-03 21:00N 47°36' W 122°21'0 0.6
2018-May-03 20:30N 47°35' W 122°20'0 0.0
2018-May-03 20:00N 47°35' W 122°20'0 0.0
2018-May-03 19:30N 47°35' W 122°20'0 0.0
2018-May-03 19:00N 47°35' W 122°20'0 0.0
2018-May-03 18:28N 47°35' W 122°20'0 0.0
2018-May-03 17:58N 47°35' W 122°20'0 0.0
2018-May-03 17:27N 47°35' W 122°20'0 0.0
2018-May-03 16:57N 47°35' W 122°20'0 0.0
2018-May-03 16:27N 47°35' W 122°20'0 0.0
2018-May-03 15:57N 47°35' W 122°20'0 0.0
2018-May-03 15:25N 47°35' W 122°20'0 0.0
2018-May-03 14:57N 47°35' W 122°20'0 0.0
2018-May-03 14:31N 47°35' W 122°20'0 0.0
2018-May-03 13:57N 47°35' W 122°20'0 0.0
2018-May-03 13:30N 47°35' W 122°20'0 0.0
2018-May-03 13:00N 47°35' W 122°20'0 0.0
2018-May-03 12:30N 47°35' W 122°20'0 0.0
2018-May-03 12:00N 47°35' W 122°20'0 0.0
2018-May-03 11:28N 47°35' W 122°20'0 0.0
2018-May-03 10:58N 47°35' W 122°20'0 0.0
2018-May-03 10:25N 47°35' W 122°20'0 0.0
2018-May-03 09:57N 47°35' W 122°20'0 0.0
2018-May-03 09:27N 47°35' W 122°20'0 0.0
2018-May-03 08:57N 47°35' W 122°20'0 0.0
2018-May-03 08:27N 47°35' W 122°20'0 0.0
2018-May-03 07:55N 47°35' W 122°20'0 0.0
2018-May-03 07:27N 47°35' W 122°20'0 0.0
2018-May-03 06:55N 47°35' W 122°20'0 0.0
2018-May-03 06:28N 47°35' W 122°20'0 0.0
2018-May-03 05:58N 47°35' W 122°20'0 0.0
2018-May-03 05:28N 47°35' W 122°20'0 0.0
2018-May-03 05:01N 47°35' W 122°20'0 0.0
2018-May-03 04:30N 47°35' W 122°20'0 0.0
2018-May-03 04:00N 47°35' W 122°20'0 0.0
2018-May-03 03:28N 47°35' W 122°20'0 0.0
2018-May-03 03:00N 47°35' W 122°20'0 0.0
2018-May-03 02:30N 47°35' W 122°20'0 0.0
2018-May-03 02:00N 47°35' W 122°20'0 0.0
2018-May-03 01:30N 47°35' W 122°20'0 0.0
2018-May-03 01:00N 47°35' W 122°20'0 0.0
2018-May-03 00:27N 47°35' W 122°20'0 0.0
2018-May-02 23:57N 47°35' W 122°20'0 0.0
2018-May-02 23:27N 47°35' W 122°20'0 0.0
2018-May-02 22:55N 47°35' W 122°20'0 0.0
2018-May-02 22:25N 47°35' W 122°20'0 0.0
2018-May-02 21:55N 47°35' W 122°20'0 0.0
2018-May-02 21:28N 47°35' W 122°20'0 0.0
2018-May-02 20:58N 47°35' W 122°20'0 0.0
2018-May-02 20:28N 47°35' W 122°20'0 0.0
2018-May-02 19:58N 47°35' W 122°20'0 0.0
2018-May-02 19:28N 47°35' W 122°20'0 0.0
2018-May-02 18:58N 47°35' W 122°20'0 0.0
2018-May-02 18:28N 47°35' W 122°20'0 0.0
2018-May-02 17:57N 47°35' W 122°20'0 0.0
2018-May-02 17:30N 47°35' W 122°20'0 0.0
2018-May-02 17:00N 47°35' W 122°20'0 0.0
2018-May-02 16:30N 47°35' W 122°20'0 0.0
2018-May-02 16:00N 47°35' W 122°20'0 0.0
2018-May-02 15:24N 47°35' W 122°20'0 0.0
2018-May-02 14:57N 47°35' W 122°20'0 0.0
2018-May-02 14:30N 47°35' W 122°20'0 0.0
2018-May-02 13:57N 47°35' W 122°20'0 0.0
2018-May-02 13:28N 47°35' W 122°20'0 0.0
2018-May-02 12:51N 47°35' W 122°20'0 0.0
2018-May-02 12:28N 47°35' W 122°20'0 0.0
2018-May-02 11:55N 47°35' W 122°20'0 0.0
2018-May-02 11:28N 47°35' W 122°20'0 0.0
2018-May-02 10:58N 47°35' W 122°20'0 0.0
2018-May-02 10:28N 47°35' W 122°20'0 0.0
2018-May-02 09:58N 47°35' W 122°20'0 0.0
2018-May-02 09:27N 47°35' W 122°20'0 0.0
2018-May-02 09:00N 47°35' W 122°20'0 0.0
2018-May-02 08:30N 47°35' W 122°20'0 0.0
2018-May-02 08:00N 47°35' W 122°20'0 0.0
2018-May-02 07:30N 47°35' W 122°20'0 0.0
2018-May-02 07:00N 47°35' W 122°20'0 0.0
2018-May-02 06:28N 47°35' W 122°20'0 0.0
2018-May-02 05:58N 47°35' W 122°20'0 0.0
2018-May-02 05:28N 47°35' W 122°20'0 0.0
2018-May-02 04:58N 47°35' W 122°20'0 0.0
2018-May-02 04:28N 47°35' W 122°20'0 0.0
2018-May-02 03:58N 47°35' W 122°20'0 0.0
2018-May-02 03:28N 47°35' W 122°20'0 0.0
2018-May-02 02:55N 47°35' W 122°20'0 0.0
2018-May-02 02:28N 47°35' W 122°20'0 0.0
2018-May-02 02:00N 47°35' W 122°20'0 0.0
2018-May-02 01:30N 47°35' W 122°20'0 0.0
2018-May-02 01:00N 47°35' W 122°20'0 0.0
2018-May-02 00:24N 47°35' W 122°20'0 0.0
2018-May-02 00:00N 47°35' W 122°20'0 0.0
2018-May-01 23:27N 47°35' W 122°20'0 0.0
2018-May-01 23:00N 47°35' W 122°20'0 0.0
2018-May-01 22:22N 47°35' W 122°20'0 0.0
2018-May-01 21:58N 47°35' W 122°20'0 0.0
2018-May-01 21:28N 47°35' W 122°20'0 0.0
2018-May-01 20:58N 47°35' W 122°20'0 0.0
2018-May-01 20:22N 47°35' W 122°20'0 0.0
2018-May-01 19:58N 47°35' W 122°20'0 0.0
2018-May-01 19:31N 47°35' W 122°20'0 0.0
2018-May-01 19:00N 47°35' W 122°20'0 0.0
2018-May-01 18:30N 47°35' W 122°20'0 0.0
2018-May-01 18:00N 47°35' W 122°20'0 0.0
2018-May-01 17:30N 47°35' W 122°20'0 0.0
2018-May-01 16:58N 47°35' W 122°20'0 0.0
2018-May-01 16:30N 47°35' W 122°20'0 0.0
2018-May-01 15:57N 47°35' W 122°20'0 0.0
2018-May-01 15:27N 47°35' W 122°20'0 0.0
2018-May-01 14:58N 47°35' W 122°20'0 0.0
2018-May-01 14:28N 47°35' W 122°20'0 0.0
2018-May-01 13:55N 47°35' W 122°20'0 0.0
2018-May-01 13:28N 47°35' W 122°20'0 0.0
2018-May-01 12:58N 47°35' W 122°20'0 0.0
2018-May-01 12:28N 47°35' W 122°20'0 0.0
2018-May-01 11:58N 47°35' W 122°20'0 0.0
2018-May-01 11:22N 47°35' W 122°20'0 0.0
2018-May-01 10:58N 47°35' W 122°20'0 0.0
2018-May-01 10:30N 47°35' W 122°20'0 0.0
2018-May-01 10:00N 47°35' W 122°20'0 0.0
2018-May-01 09:30N 47°35' W 122°20'0 0.0
2018-May-01 09:00N 47°35' W 122°20'0 0.0
2018-May-01 08:30N 47°35' W 122°20'0 0.0
2018-May-01 08:00N 47°35' W 122°20'0 0.0
2018-May-01 07:25N 47°35' W 122°20'0 0.0
2018-May-01 06:55N 47°35' W 122°20'0 0.0
2018-May-01 06:27N 47°35' W 122°20'0 0.0
2018-May-01 05:55N 47°35' W 122°20'0 0.0
2018-May-01 05:22N 47°35' W 122°20'0 0.0
2018-May-01 04:58N 47°35' W 122°20'0 0.0
2018-May-01 04:25N 47°35' W 122°20'0 0.0
2018-May-01 03:58N 47°35' W 122°20'0 0.0
2018-May-01 03:28N 47°35' W 122°20'0 0.0
2018-May-01 02:58N 47°35' W 122°20'0 0.0
2018-May-01 02:28N 47°35' W 122°20'0 0.0
2018-May-01 01:58N 47°35' W 122°20'0 0.0
2018-May-01 01:28N 47°35' W 122°20'0 0.0
2018-May-01 00:58N 47°35' W 122°20'0 0.0
2018-May-01 00:30N 47°35' W 122°20'0 0.0
2018-May-01 00:00N 47°35' W 122°20'0 0.0
2018-Apr-30 23:24N 47°35' W 122°20'0 0.0
2018-Apr-30 23:00N 47°35' W 122°20'0 0.0
2018-Apr-30 22:30N 47°35' W 122°20'0 0.0
2018-Apr-30 22:00N 47°35' W 122°20'0 0.0
2018-Apr-30 21:30N 47°35' W 122°20'0 0.0
2018-Apr-30 20:57N 47°35' W 122°20'0 0.0
2018-Apr-30 20:27N 47°35' W 122°20'0 0.0
2018-Apr-30 19:58N 47°35' W 122°20'0 0.0
2018-Apr-30 19:27N 47°35' W 122°20'0 0.0
2018-Apr-30 18:58N 47°35' W 122°20'0 0.0
2018-Apr-30 18:28N 47°35' W 122°20'0 0.0
2018-Apr-30 17:58N 47°35' W 122°20'0 0.0
2018-Apr-30 17:22N 47°35' W 122°20'0 0.0
2018-Apr-30 16:58N 47°35' W 122°20'0 0.0
2018-Apr-30 16:28N 47°35' W 122°20'0 0.0
2018-Apr-30 15:58N 47°35' W 122°20'0 0.0
2018-Apr-30 15:30N 47°35' W 122°20'0 0.0
2018-Apr-30 15:00N 47°35' W 122°20'0 0.0
2018-Apr-30 14:30N 47°35' W 122°20'0 0.0
2018-Apr-30 13:54N 47°35' W 122°20'0 0.0
2018-Apr-30 13:28N 47°35' W 122°20'0 0.0
2018-Apr-30 12:58N 47°35' W 122°20'0 0.0
2018-Apr-30 12:27N 47°35' W 122°20'0 0.0
2018-Apr-30 11:57N 47°35' W 122°20'0 0.0
2018-Apr-30 11:27N 47°35' W 122°20'0 0.0
2018-Apr-30 10:55N 47°35' W 122°20'0 0.0
2018-Apr-30 10:28N 47°35' W 122°20'0 0.0
2018-Apr-30 09:58N 47°35' W 122°20'0 0.0
2018-Apr-30 09:28N 47°35' W 122°20'0 0.0
2018-Apr-30 08:58N 47°35' W 122°20'0 0.0
2018-Apr-30 08:28N 47°35' W 122°20'0 0.0
2018-Apr-30 08:01N 47°35' W 122°20'0 0.0
2018-Apr-30 07:30N 47°35' W 122°20'0 0.0
2018-Apr-30 07:00N 47°35' W 122°20'0 0.0
2018-Apr-30 06:30N 47°35' W 122°20'0 0.0
2018-Apr-30 05:58N 47°35' W 122°20'0 0.0
2018-Apr-30 05:30N 47°35' W 122°20'0 0.0
2018-Apr-30 04:57N 47°35' W 122°20'0 0.0
2018-Apr-30 04:27N 47°35' W 122°20'0 0.0
2018-Apr-30 03:57N 47°35' W 122°20'0 0.0
2018-Apr-30 03:27N 47°35' W 122°20'0 0.0
2018-Apr-30 02:57N 47°35' W 122°20'0 0.0
2018-Apr-30 02:27N 47°35' W 122°20'0 0.0
2018-Apr-30 01:57N 47°35' W 122°20'0 0.0
2018-Apr-30 01:27N 47°35' W 122°20'0 0.0
2018-Apr-30 00:58N 47°35' W 122°20'0 0.0
2018-Apr-30 00:28N 47°35' W 122°20'0 0.0
2018-Apr-29 23:58N 47°35' W 122°20'0 0.0
2018-Apr-29 23:28N 47°35' W 122°20'0 0.0
2018-Apr-29 23:01N 47°35' W 122°20'0 0.0
2018-Apr-29 22:30N 47°35' W 122°20'0 0.0
2018-Apr-29 21:58N 47°35' W 122°20'0 0.0
2018-Apr-29 21:30N 47°35' W 122°20'0 0.0
2018-Apr-29 21:00N 47°35' W 122°20'0 0.0
2018-Apr-29 20:28N 47°35' W 122°20'0 0.0
2018-Apr-29 19:58N 47°35' W 122°20'0 0.0
2018-Apr-29 19:28N 47°35' W 122°20'0 0.0
2018-Apr-29 18:58N 47°35' W 122°20'0 0.0
2018-Apr-29 18:28N 47°35' W 122°20'0 0.0
2018-Apr-29 17:58N 47°35' W 122°20'0 0.0
2018-Apr-29 17:25N 47°35' W 122°20'0 0.0
2018-Apr-29 16:57N 47°35' W 122°20'0 0.0
2018-Apr-29 16:28N 47°35' W 122°20'0 0.0
2018-Apr-29 15:58N 47°35' W 122°20'0 0.0
2018-Apr-29 15:28N 47°35' W 122°20'0 0.0
2018-Apr-29 14:58N 47°35' W 122°20'0 0.0
2018-Apr-29 14:28N 47°35' W 122°20'0 0.0
2018-Apr-29 13:58N 47°35' W 122°20'0 0.0
2018-Apr-29 13:31N 47°35' W 122°20'0 0.0
2018-Apr-29 12:58N 47°35' W 122°20'0 0.0
2018-Apr-29 12:30N 47°35' W 122°20'0 0.0
2018-Apr-29 12:00N 47°35' W 122°20'0 0.0
2018-Apr-29 11:30N 47°35' W 122°20'0 0.0
2018-Apr-29 11:00N 47°35' W 122°20'0 0.0
2018-Apr-29 10:24N 47°35' W 122°20'0 0.0
2018-Apr-29 10:00N 47°35' W 122°20'0 0.0
2018-Apr-29 09:28N 47°35' W 122°20'0 0.0
2018-Apr-29 08:58N 47°35' W 122°20'0 0.0
2018-Apr-29 08:28N 47°35' W 122°20'0 0.0
2018-Apr-29 07:57N 47°35' W 122°20'0 0.0
2018-Apr-29 07:27N 47°35' W 122°20'0 0.0
2018-Apr-29 06:57N 47°35' W 122°20'0 0.0
2018-Apr-29 06:27N 47°35' W 122°20'0 0.0
2018-Apr-29 05:58N 47°35' W 122°20'0 0.0
2018-Apr-29 05:28N 47°35' W 122°20'0 0.0
2018-Apr-29 04:58N 47°35' W 122°20'0 0.0
2018-Apr-29 04:28N 47°35' W 122°20'0 0.0
2018-Apr-29 03:58N 47°35' W 122°20'0 0.0
2018-Apr-29 03:28N 47°35' W 122°20'0 0.0
2018-Apr-29 02:58N 47°35' W 122°20'0 0.0
2018-Apr-29 02:30N 47°35' W 122°20'0 0.0
2018-Apr-29 01:58N 47°35' W 122°20'0 0.0
2018-Apr-29 01:30N 47°35' W 122°20'0 0.0
2018-Apr-29 01:00N 47°35' W 122°20'0 0.0
2018-Apr-29 00:25N 47°35' W 122°20'0 0.0
2018-Apr-28 23:58N 47°35' W 122°20'0 0.0
2018-Apr-28 23:28N 47°35' W 122°20'0 0.0
2018-Apr-28 22:58N 47°35' W 122°20'0 0.0
2018-Apr-28 22:27N 47°35' W 122°20'0 0.0
2018-Apr-28 21:57N 47°35' W 122°20'0 0.0
2018-Apr-28 21:27N 47°35' W 122°20'0 0.0
2018-Apr-28 20:57N 47°35' W 122°20'0 0.0
2018-Apr-28 20:28N 47°35' W 122°20'0 0.0
2018-Apr-28 19:58N 47°35' W 122°20'0 0.0
2018-Apr-28 19:28N 47°35' W 122°20'0 0.0
2018-Apr-28 18:58N 47°35' W 122°20'0 0.0
2018-Apr-28 18:25N 47°35' W 122°20'0 0.0
2018-Apr-28 17:55N 47°35' W 122°20'0 0.0
2018-Apr-28 17:30N 47°35' W 122°20'0 0.0
2018-Apr-28 17:00N 47°35' W 122°20'0 0.0
2018-Apr-28 16:30N 47°35' W 122°20'0 0.0
2018-Apr-28 15:55N 47°35' W 122°20'0 0.0
2018-Apr-28 15:28N 47°35' W 122°20'0 0.0
2018-Apr-28 14:58N 47°35' W 122°20'0 0.0
2018-Apr-28 14:28N 47°35' W 122°20'0 0.0
2018-Apr-28 13:58N 47°35' W 122°20'0 0.0
2018-Apr-28 13:28N 47°35' W 122°20'0 0.0
2018-Apr-28 12:58N 47°35' W 122°20'0 0.0
2018-Apr-28 12:28N 47°35' W 122°20'0 0.0
2018-Apr-28 11:57N 47°35' W 122°20'0 0.0
2018-Apr-28 11:27N 47°35' W 122°20'0 0.0
2018-Apr-28 10:58N 47°35' W 122°20'0 0.0
2018-Apr-28 10:27N 47°35' W 122°20'0 0.0
2018-Apr-28 09:57N 47°35' W 122°20'0 0.0
2018-Apr-28 09:21N 47°35' W 122°20'0 0.0
2018-Apr-28 08:58N 47°35' W 122°20'0 0.0
2018-Apr-28 08:28N 47°35' W 122°20'0 0.0
2018-Apr-28 07:58N 47°35' W 122°20'0 0.0
2018-Apr-28 07:28N 47°35' W 122°20'0 0.0
2018-Apr-28 07:01N 47°35' W 122°20'0 0.0
2018-Apr-28 06:28N 47°35' W 122°20'0 0.0
2018-Apr-28 06:00N 47°35' W 122°20'0 0.0
2018-Apr-28 05:25N 47°35' W 122°20'0 0.0
2018-Apr-28 04:58N 47°35' W 122°20'0 0.0
2018-Apr-28 04:28N 47°35' W 122°20'0 0.0
2018-Apr-28 03:58N 47°35' W 122°20'0 0.0
2018-Apr-28 03:28N 47°35' W 122°20'0 0.0
2018-Apr-28 02:58N 47°35' W 122°20'0 0.0
2018-Apr-28 02:28N 47°35' W 122°20'0 0.0
2018-Apr-28 01:58N 47°35' W 122°20'0 0.0
2018-Apr-28 01:25N 47°35' W 122°20'0 0.0
2018-Apr-28 00:57N 47°35' W 122°20'0 0.0
2018-Apr-28 00:25N 47°35' W 122°20'0 0.0
2018-Apr-27 23:58N 47°35' W 122°20'0 0.0
2018-Apr-27 23:28N 47°35' W 122°20'0 0.0
2018-Apr-27 23:00N 47°35' W 122°20'0 0.0
2018-Apr-27 22:31N 47°35' W 122°20'0 0.0
2018-Apr-27 22:00N 47°35' W 122°20'0 0.0
2018-Apr-27 21:28N 47°35' W 122°20'0 0.0
2018-Apr-27 20:58N 47°35' W 122°20'0 0.0
2018-Apr-27 20:30N 47°35' W 122°20'0 0.0
2018-Apr-27 19:58N 47°35' W 122°20'0 0.0
2018-Apr-27 19:28N 47°35' W 122°20'0 0.0
2018-Apr-27 18:58N 47°35' W 122°20'0 0.0
2018-Apr-27 18:28N 47°35' W 122°20'0 0.0
2018-Apr-27 17:58N 47°35' W 122°20'0 0.0
2018-Apr-27 17:28N 47°35' W 122°20'0 0.0
2018-Apr-27 16:58N 47°35' W 122°20'0 0.0
2018-Apr-27 16:28N 47°35' W 122°20'0 0.0
2018-Apr-27 15:57N 47°35' W 122°20'0 0.0
2018-Apr-27 15:28N 47°35' W 122°20'0 0.0
2018-Apr-27 14:58N 47°35' W 122°20'0 0.0
2018-Apr-27 14:28N 47°35' W 122°20'0 0.0
2018-Apr-27 13:58N 47°35' W 122°20'0 0.0
2018-Apr-27 13:28N 47°35' W 122°20'0 0.0
2018-Apr-27 12:55N 47°35' W 122°20'0 0.0
2018-Apr-27 12:28N 47°35' W 122°20'0 0.0
2018-Apr-27 11:58N 47°35' W 122°20'0 0.0
2018-Apr-27 11:28N 47°35' W 122°20'0 0.0
2018-Apr-27 10:55N 47°35' W 122°20'0 0.0
2018-Apr-27 10:31N 47°35' W 122°20'0 0.0
2018-Apr-27 10:00N 47°35' W 122°20'0 0.0
2018-Apr-27 09:28N 47°35' W 122°20'0 0.0
2018-Apr-27 08:58N 47°35' W 122°20'0 0.0
2018-Apr-27 08:27N 47°35' W 122°20'0 0.0
2018-Apr-27 07:57N 47°35' W 122°20'0 0.0
2018-Apr-27 07:27N 47°35' W 122°20'0 0.0
2018-Apr-27 06:58N 47°35' W 122°20'0 0.0
2018-Apr-27 06:28N 47°35' W 122°20'0 0.0
2018-Apr-27 05:58N 47°35' W 122°20'0 0.0
2018-Apr-27 05:27N 47°35' W 122°20'0 0.0
2018-Apr-27 04:58N 47°35' W 122°20'0 0.0
2018-Apr-27 04:22N 47°35' W 122°20'0 0.0
2018-Apr-27 03:58N 47°35' W 122°20'0 0.0
2018-Apr-27 03:28N 47°35' W 122°20'0 0.0
2018-Apr-27 02:58N 47°35' W 122°20'0 0.0
2018-Apr-27 02:28N 47°35' W 122°20'0 0.0
2018-Apr-27 02:00N 47°35' W 122°20'0 0.0
2018-Apr-27 01:28N 47°35' W 122°20'0 0.0
2018-Apr-27 00:58N 47°35' W 122°20'0 0.0
2018-Apr-27 00:28N 47°35' W 122°20'0 0.0
2018-Apr-26 23:58N 47°35' W 122°20'0 0.0
2018-Apr-26 23:28N 47°35' W 122°20'0 0.0
2018-Apr-26 22:58N 47°35' W 122°20'0 0.0
2018-Apr-26 22:25N 47°35' W 122°20'0 0.0
2018-Apr-26 21:57N 47°35' W 122°20'0 0.0
2018-Apr-26 21:28N 47°35' W 122°20'0 0.0
2018-Apr-26 20:58N 47°35' W 122°20'0 0.0
2018-Apr-26 20:25N 47°35' W 122°20'0 0.0
2018-Apr-26 19:58N 47°35' W 122°20'0 0.0
2018-Apr-26 19:28N 47°35' W 122°20'0 0.0
2018-Apr-26 18:58N 47°35' W 122°20'0 0.0
2018-Apr-26 18:25N 47°35' W 122°20'0 0.0
2018-Apr-26 17:58N 47°35' W 122°20'0 0.0
2018-Apr-26 17:28N 47°35' W 122°20'0 0.0
2018-Apr-26 16:58N 47°35' W 122°20'0 0.0
2018-Apr-26 16:31N 47°35' W 122°20'0 0.0
2018-Apr-26 16:00N 47°35' W 122°20'0 0.0
2018-Apr-26 15:28N 47°35' W 122°20'0 0.0
2018-Apr-26 14:58N 47°35' W 122°20'0 0.0
2018-Apr-26 14:28N 47°35' W 122°20'0 0.0
2018-Apr-26 13:58N 47°35' W 122°20'0 0.0
2018-Apr-26 13:27N 47°35' W 122°20'0 0.0
2018-Apr-26 12:58N 47°35' W 122°20'0 0.0
2018-Apr-26 12:28N 47°35' W 122°20'0 0.0
2018-Apr-26 11:55N 47°35' W 122°20'0 0.0
2018-Apr-26 11:28N 47°35' W 122°20'0 0.0
2018-Apr-26 10:55N 47°35' W 122°20'0 0.0
2018-Apr-26 10:28N 47°35' W 122°20'0 0.0
2018-Apr-26 09:58N 47°35' W 122°20'0 0.0
2018-Apr-26 09:25N 47°35' W 122°20'0 0.0
2018-Apr-26 08:58N 47°35' W 122°20'0 0.0
2018-Apr-26 08:28N 47°35' W 122°20'0 0.0
2018-Apr-26 07:58N 47°35' W 122°20'0 0.0
2018-Apr-26 07:28N 47°35' W 122°20'0 0.0
2018-Apr-26 06:58N 47°35' W 122°20'0 0.0
2018-Apr-26 06:28N 47°35' W 122°20'0 0.0
2018-Apr-26 05:58N 47°35' W 122°20'0 0.0
2018-Apr-26 05:28N 47°35' W 122°20'0 0.0
2018-Apr-26 04:58N 47°35' W 122°20'0 0.0
2018-Apr-26 04:28N 47°35' W 122°20'0 0.0
2018-Apr-26 03:55N 47°35' W 122°20'0 0.0
2018-Apr-26 03:25N 47°35' W 122°20'0 0.0
2018-Apr-26 02:58N 47°35' W 122°20'0 0.0
2018-Apr-26 02:28N 47°35' W 122°20'0 0.0
2018-Apr-26 01:58N 47°35' W 122°20'0 0.0
2018-Apr-26 01:25N 47°35' W 122°20'0 0.0
2018-Apr-26 00:58N 47°35' W 122°20'0 0.0
2018-Apr-26 00:28N 47°35' W 122°20'0 0.0
2018-Apr-25 23:58N 47°35' W 122°20'0 0.0
2018-Apr-25 23:28N 47°35' W 122°20'0 0.0
2018-Apr-25 22:58N 47°35' W 122°20'0 0.0
2018-Apr-25 22:28N 47°35' W 122°20'0 0.0
2018-Apr-25 21:58N 47°35' W 122°20'0 0.0
2018-Apr-25 21:28N 47°35' W 122°20'0 0.0
2018-Apr-25 20:58N 47°35' W 122°20'0 0.0
2018-Apr-25 20:28N 47°35' W 122°20'0 0.0
2018-Apr-25 19:58N 47°35' W 122°20'0 0.0
2018-Apr-25 19:25N 47°35' W 122°20'0 0.0
2018-Apr-25 18:58N 47°35' W 122°20'0 0.0
2018-Apr-25 18:28N 47°35' W 122°20'0 0.0
2018-Apr-25 17:58N 47°35' W 122°20'0 0.0
2018-Apr-25 17:25N 47°35' W 122°20'0 0.0
2018-Apr-25 16:58N 47°35' W 122°20'0 0.0
2018-Apr-25 16:28N 47°35' W 122°20'0 0.0
2018-Apr-25 15:58N 47°35' W 122°20'0 0.0
2018-Apr-25 15:28N 47°35' W 122°20'0 0.0
2018-Apr-25 14:55N 47°35' W 122°20'0 0.0
2018-Apr-25 14:28N 47°35' W 122°20'0 0.0
2018-Apr-25 13:58N 47°35' W 122°20'0 0.0
2018-Apr-25 13:28N 47°35' W 122°20'0 0.0
2018-Apr-25 12:58N 47°35' W 122°20'0 0.0
2018-Apr-25 12:25N 47°35' W 122°20'0 0.0
2018-Apr-25 11:52N 47°35' W 122°20'0 0.0
2018-Apr-25 11:28N 47°35' W 122°20'0 0.0
2018-Apr-25 10:58N 47°35' W 122°20'0 0.0
2018-Apr-25 10:25N 47°35' W 122°20'0 0.0
2018-Apr-25 09:58N 47°35' W 122°20'  
Track history (hours):
 
Tides and Currents Weather Stations Pressure Air Temp Water Temp Dewpoint Dewpoint Depression Visibility Wind Speed Wind Dir Waves Ship Positions

Mellon

Last reported at 2018-May-05 09:49 UTC. Time now 2018-Jun-25 08:01 UTC.
Position N 48°43' W 126°33'.
Warning: this ship's position is 50 days out of date.

Type: Law enforcement. MMSI: 367248000.

Date/timePositionNaut miles runAvg speedWind from/ knotsBaromVisibWave heightAir tempDewpointWater temp
2018-May-05 09:49N 48°43' W 126°33'413.6
2018-May-05 09:30N 48°42' W 126°27'713.6
2018-May-05 09:00N 48°41' W 126°17'713.6
2018-May-05 08:31N 48°39' W 126°07'713.4
2018-May-05 08:00N 48°38' W 125°57'713.6
2018-May-05 07:30N 48°36' W 125°47'714.1
2018-May-05 07:00N 48°35' W 125°37'713.6
2018-May-05 06:28N 48°33' W 125°26'713.9
2018-May-05 05:58N 48°32' W 125°16'714.2
2018-May-05 05:30N 48°31' W 125°06'714.7
2018-May-05 05:01N 48°31' W 124°55'714.1
2018-May-05 04:30N 48°31' W 124°44'713.8
2018-May-05 04:00N 48°28' W 124°35'713.6
2018-May-05 03:30N 48°26' W 124°25'713.1
2018-May-05 03:00N 48°23' W 124°16'5011.2
2018-May-04 22:34N 48°17' W 123°02'4 4.3
2018-May-04 21:35N 48°14' W 122°56'1 7.8
2018-May-04 21:29N 48°14' W 122°58'1 1.8
2018-May-04 20:54N 48°15' W 122°56'4 4.3
2018-May-04 20:04N 48°16' W 123°01'1 4.6
2018-May-04 19:57N 48°17' W 123°01'4 8.5
2018-May-04 19:30N 48°20' W 122°58'3 5.7
2018-May-04 19:00N 48°22' W 122°55'1 1.3
2018-May-04 18:30N 48°23' W 122°54'0 0.5
2018-May-04 18:00N 48°23' W 122°55'1 1.2
2018-May-04 17:31N 48°22' W 122°54'1 2.7
2018-May-04 17:00N 48°22' W 122°52'2 3.7
2018-May-04 16:30N 48°21' W 122°54'712.2
2018-May-04 15:55N 48°16' W 123°01'3 5.9
2018-May-04 15:29N 48°15' W 123°04'4 2.0
2018-May-04 13:23N 48°15' W 122°58'2 4.9
2018-May-04 12:58N 48°15' W 123°01'2 4.9
2018-May-04 12:30N 48°15' W 123°05'5 2.8
2018-May-04 10:35N 48°15' W 122°56'0 4.4
2018-May-04 10:30N 48°15' W 122°57'3 4.7
2018-May-04 09:57N 48°15' W 123°01'2 4.4
2018-May-04 09:30N 48°15' W 123°04'5 2.6
2018-May-04 07:31N 48°15' W 122°56'0 5.5
2018-May-04 07:29N 48°15' W 122°56'2 4.7
2018-May-04 06:58N 48°15' W 122°60'2 4.9
2018-May-04 06:30N 48°15' W 123°03'5 9.6
2018-May-04 06:01N 48°15' W 123°10'23 3.7
2018-May-03 23:38N 48°05' W 122°39'523.8
2018-May-03 23:26N 48°01' W 122°37'921.4
2018-May-03 23:01N 47°54' W 122°28'612.5
2018-May-03 22:30N 47°48' W 122°26'611.7
2018-May-03 22:00N 47°42' W 122°27'4 7.8
2018-May-03 21:30N 47°38' W 122°26'4 8.4
2018-May-03 21:00N 47°36' W 122°21'0 0.6
2018-May-03 20:30N 47°35' W 122°20'0 0.0
2018-May-03 20:00N 47°35' W 122°20'0 0.0
2018-May-03 19:30N 47°35' W 122°20'0 0.0
2018-May-03 19:00N 47°35' W 122°20'0 0.0
2018-May-03 18:28N 47°35' W 122°20'0 0.0
2018-May-03 17:58N 47°35' W 122°20'0 0.0
2018-May-03 17:27N 47°35' W 122°20'0 0.0
2018-May-03 16:57N 47°35' W 122°20'0 0.0
2018-May-03 16:27N 47°35' W 122°20'0 0.0
2018-May-03 15:57N 47°35' W 122°20'0 0.0
2018-May-03 15:25N 47°35' W 122°20'0 0.0
2018-May-03 14:57N 47°35' W 122°20'0 0.0
2018-May-03 14:31N 47°35' W 122°20'0 0.0
2018-May-03 13:57N 47°35' W 122°20'0 0.0
2018-May-03 13:30N 47°35' W 122°20'0 0.0
2018-May-03 13:00N 47°35' W 122°20'0 0.0
2018-May-03 12:30N 47°35' W 122°20'0 0.0
2018-May-03 12:00N 47°35' W 122°20'0 0.0
2018-May-03 11:28N 47°35' W 122°20'0 0.0
2018-May-03 10:58N 47°35' W 122°20'0 0.0
2018-May-03 10:25N 47°35' W 122°20'0 0.0
2018-May-03 09:57N 47°35' W 122°20'0 0.0
2018-May-03 09:27N 47°35' W 122°20'0 0.0
2018-May-03 08:57N 47°35' W 122°20'0 0.0
2018-May-03 08:27N 47°35' W 122°20'0 0.0
2018-May-03 07:55N 47°35' W 122°20'0 0.0
2018-May-03 07:27N 47°35' W 122°20'0 0.0
2018-May-03 06:55N 47°35' W 122°20'0 0.0
2018-May-03 06:28N 47°35' W 122°20'0 0.0
2018-May-03 05:58N 47°35' W 122°20'0 0.0
2018-May-03 05:28N 47°35' W 122°20'0 0.0
2018-May-03 05:01N 47°35' W 122°20'0 0.0
2018-May-03 04:30N 47°35' W 122°20'0 0.0
2018-May-03 04:00N 47°35' W 122°20'0 0.0
2018-May-03 03:28N 47°35' W 122°20'0 0.0
2018-May-03 03:00N 47°35' W 122°20'0 0.0
2018-May-03 02:30N 47°35' W 122°20'0 0.0
2018-May-03 02:00N 47°35' W 122°20'0 0.0
2018-May-03 01:30N 47°35' W 122°20'0 0.0
2018-May-03 01:00N 47°35' W 122°20'0 0.0
2018-May-03 00:27N 47°35' W 122°20'0 0.0
2018-May-02 23:57N 47°35' W 122°20'0 0.0
2018-May-02 23:27N 47°35' W 122°20'0 0.0
2018-May-02 22:55N 47°35' W 122°20'0 0.0
2018-May-02 22:25N 47°35' W 122°20'0 0.0
2018-May-02 21:55N 47°35' W 122°20'0 0.0
2018-May-02 21:28N 47°35' W 122°20'0 0.0
2018-May-02 20:58N 47°35' W 122°20'0 0.0
2018-May-02 20:28N 47°35' W 122°20'0 0.0
2018-May-02 19:58N 47°35' W 122°20'0 0.0
2018-May-02 19:28N 47°35' W 122°20'0 0.0
2018-May-02 18:58N 47°35' W 122°20'0 0.0
2018-May-02 18:28N 47°35' W 122°20'0 0.0
2018-May-02 17:57N 47°35' W 122°20'0 0.0
2018-May-02 17:30N 47°35' W 122°20'0 0.0
2018-May-02 17:00N 47°35' W 122°20'0 0.0
2018-May-02 16:30N 47°35' W 122°20'0 0.0
2018-May-02 16:00N 47°35' W 122°20'0 0.0
2018-May-02 15:24N 47°35' W 122°20'0 0.0
2018-May-02 14:57N 47°35' W 122°20'0 0.0
2018-May-02 14:30N 47°35' W 122°20'0 0.0
2018-May-02 13:57N 47°35' W 122°20'0 0.0
2018-May-02 13:28N 47°35' W 122°20'0 0.0
2018-May-02 12:51N 47°35' W 122°20'0 0.0
2018-May-02 12:28N 47°35' W 122°20'0 0.0
2018-May-02 11:55N 47°35' W 122°20'0 0.0
2018-May-02 11:28N 47°35' W 122°20'0 0.0
2018-May-02 10:58N 47°35' W 122°20'0 0.0
2018-May-02 10:28N 47°35' W 122°20'0 0.0
2018-May-02 09:58N 47°35' W 122°20'0 0.0
2018-May-02 09:27N 47°35' W 122°20'0 0.0
2018-May-02 09:00N 47°35' W 122°20'0 0.0
2018-May-02 08:30N 47°35' W 122°20'0 0.0
2018-May-02 08:00N 47°35' W 122°20'0 0.0
2018-May-02 07:30N 47°35' W 122°20'0 0.0
2018-May-02 07:00N 47°35' W 122°20'0 0.0
2018-May-02 06:28N 47°35' W 122°20'0 0.0
2018-May-02 05:58N 47°35' W 122°20'0 0.0
2018-May-02 05:28N 47°35' W 122°20'0 0.0
2018-May-02 04:58N 47°35' W 122°20'0 0.0
2018-May-02 04:28N 47°35' W 122°20'0 0.0
2018-May-02 03:58N 47°35' W 122°20'0 0.0
2018-May-02 03:28N 47°35' W 122°20'0 0.0
2018-May-02 02:55N 47°35' W 122°20'0 0.0
2018-May-02 02:28N 47°35' W 122°20'0 0.0
2018-May-02 02:00N 47°35' W 122°20'0 0.0
2018-May-02 01:30N 47°35' W 122°20'0 0.0
2018-May-02 01:00N 47°35' W 122°20'0 0.0
2018-May-02 00:24N 47°35' W 122°20'0 0.0
2018-May-02 00:00N 47°35' W 122°20'0 0.0
2018-May-01 23:27N 47°35' W 122°20'0 0.0
2018-May-01 23:00N 47°35' W 122°20'0 0.0
2018-May-01 22:22N 47°35' W 122°20'0 0.0
2018-May-01 21:58N 47°35' W 122°20'0 0.0
2018-May-01 21:28N 47°35' W 122°20'0 0.0
2018-May-01 20:58N 47°35' W 122°20'0 0.0
2018-May-01 20:22N 47°35' W 122°20'0 0.0
2018-May-01 19:58N 47°35' W 122°20'0 0.0
2018-May-01 19:31N 47°35' W 122°20'0 0.0
2018-May-01 19:00N 47°35' W 122°20'0 0.0
2018-May-01 18:30N 47°35' W 122°20'0 0.0
2018-May-01 18:00N 47°35' W 122°20'0 0.0
2018-May-01 17:30N 47°35' W 122°20'0 0.0
2018-May-01 16:58N 47°35' W 122°20'0 0.0
2018-May-01 16:30N 47°35' W 122°20'0 0.0
2018-May-01 15:57N 47°35' W 122°20'0 0.0
2018-May-01 15:27N 47°35' W 122°20'0 0.0
2018-May-01 14:58N 47°35' W 122°20'0 0.0
2018-May-01 14:28N 47°35' W 122°20'0 0.0
2018-May-01 13:55N 47°35' W 122°20'0 0.0
2018-May-01 13:28N 47°35' W 122°20'0 0.0
2018-May-01 12:58N 47°35' W 122°20'0 0.0
2018-May-01 12:28N 47°35' W 122°20'0 0.0
2018-May-01 11:58N 47°35' W 122°20'0 0.0
2018-May-01 11:22N 47°35' W 122°20'0 0.0
2018-May-01 10:58N 47°35' W 122°20'0 0.0
2018-May-01 10:30N 47°35' W 122°20'0 0.0
2018-May-01 10:00N 47°35' W 122°20'0 0.0
2018-May-01 09:30N 47°35' W 122°20'0 0.0
2018-May-01 09:00N 47°35' W 122°20'0 0.0
2018-May-01 08:30N 47°35' W 122°20'0 0.0
2018-May-01 08:00N 47°35' W 122°20'0 0.0
2018-May-01 07:25N 47°35' W 122°20'0 0.0
2018-May-01 06:55N 47°35' W 122°20'0 0.0
2018-May-01 06:27N 47°35' W 122°20'0 0.0
2018-May-01 05:55N 47°35' W 122°20'0 0.0
2018-May-01 05:22N 47°35' W 122°20'0 0.0
2018-May-01 04:58N 47°35' W 122°20'0 0.0
2018-May-01 04:25N 47°35' W 122°20'0 0.0
2018-May-01 03:58N 47°35' W 122°20'0 0.0
2018-May-01 03:28N 47°35' W 122°20'0 0.0
2018-May-01 02:58N 47°35' W 122°20'0 0.0
2018-May-01 02:28N 47°35' W 122°20'0 0.0
2018-May-01 01:58N 47°35' W 122°20'0 0.0
2018-May-01 01:28N 47°35' W 122°20'0 0.0
2018-May-01 00:58N 47°35' W 122°20'0 0.0
2018-May-01 00:30N 47°35' W 122°20'0 0.0
2018-May-01 00:00N 47°35' W 122°20'0 0.0
2018-Apr-30 23:24N 47°35' W 122°20'0 0.0
2018-Apr-30 23:00N 47°35' W 122°20'0 0.0
2018-Apr-30 22:30N 47°35' W 122°20'0 0.0
2018-Apr-30 22:00N 47°35' W 122°20'0 0.0
2018-Apr-30 21:30N 47°35' W 122°20'0 0.0
2018-Apr-30 20:57N 47°35' W 122°20'0 0.0
2018-Apr-30 20:27N 47°35' W 122°20'0 0.0
2018-Apr-30 19:58N 47°35' W 122°20'0 0.0
2018-Apr-30 19:27N 47°35' W 122°20'0 0.0
2018-Apr-30 18:58N 47°35' W 122°20'0 0.0
2018-Apr-30 18:28N 47°35' W 122°20'0 0.0
2018-Apr-30 17:58N 47°35' W 122°20'0 0.0
2018-Apr-30 17:22N 47°35' W 122°20'0 0.0
2018-Apr-30 16:58N 47°35' W 122°20'0 0.0
2018-Apr-30 16:28N 47°35' W 122°20'0 0.0
2018-Apr-30 15:58N 47°35' W 122°20'0 0.0
2018-Apr-30 15:30N 47°35' W 122°20'0 0.0
2018-Apr-30 15:00N 47°35' W 122°20'0 0.0
2018-Apr-30 14:30N 47°35' W 122°20'0 0.0
2018-Apr-30 13:54N 47°35' W 122°20'0 0.0
2018-Apr-30 13:28N 47°35' W 122°20'0 0.0
2018-Apr-30 12:58N 47°35' W 122°20'0 0.0
2018-Apr-30 12:27N 47°35' W 122°20'0 0.0
2018-Apr-30 11:57N 47°35' W 122°20'0 0.0
2018-Apr-30 11:27N 47°35' W 122°20'0 0.0
2018-Apr-30 10:55N 47°35' W 122°20'0 0.0
2018-Apr-30 10:28N 47°35' W 122°20'0 0.0
2018-Apr-30 09:58N 47°35' W 122°20'0 0.0
2018-Apr-30 09:28N 47°35' W 122°20'0 0.0
2018-Apr-30 08:58N 47°35' W 122°20'0 0.0
2018-Apr-30 08:28N 47°35' W 122°20'0 0.0
2018-Apr-30 08:01N 47°35' W 122°20'0 0.0
2018-Apr-30 07:30N 47°35' W 122°20'0 0.0
2018-Apr-30 07:00N 47°35' W 122°20'0 0.0
2018-Apr-30 06:30N 47°35' W 122°20'0 0.0
2018-Apr-30 05:58N 47°35' W 122°20'0 0.0
2018-Apr-30 05:30N 47°35' W 122°20'0 0.0
2018-Apr-30 04:57N 47°35' W 122°20'0 0.0
2018-Apr-30 04:27N 47°35' W 122°20'0 0.0
2018-Apr-30 03:57N 47°35' W 122°20'0 0.0
2018-Apr-30 03:27N 47°35' W 122°20'0 0.0
2018-Apr-30 02:57N 47°35' W 122°20'0 0.0
2018-Apr-30 02:27N 47°35' W 122°20'0 0.0
2018-Apr-30 01:57N 47°35' W 122°20'0 0.0
2018-Apr-30 01:27N 47°35' W 122°20'0 0.0
2018-Apr-30 00:58N 47°35' W 122°20'0 0.0
2018-Apr-30 00:28N 47°35' W 122°20'0 0.0
2018-Apr-29 23:58N 47°35' W 122°20'0 0.0
2018-Apr-29 23:28N 47°35' W 122°20'0 0.0
2018-Apr-29 23:01N 47°35' W 122°20'0 0.0
2018-Apr-29 22:30N 47°35' W 122°20'0 0.0
2018-Apr-29 21:58N 47°35' W 122°20'0 0.0
2018-Apr-29 21:30N 47°35' W 122°20'0 0.0
2018-Apr-29 21:00N 47°35' W 122°20'0 0.0
2018-Apr-29 20:28N 47°35' W 122°20'0 0.0
2018-Apr-29 19:58N 47°35' W 122°20'0 0.0
2018-Apr-29 19:28N 47°35' W 122°20'0 0.0
2018-Apr-29 18:58N 47°35' W 122°20'0 0.0
2018-Apr-29 18:28N 47°35' W 122°20'0 0.0
2018-Apr-29 17:58N 47°35' W 122°20'0 0.0
2018-Apr-29 17:25N 47°35' W 122°20'0 0.0
2018-Apr-29 16:57N 47°35' W 122°20'0 0.0
2018-Apr-29 16:28N 47°35' W 122°20'0 0.0
2018-Apr-29 15:58N 47°35' W 122°20'0 0.0
2018-Apr-29 15:28N 47°35' W 122°20'0 0.0
2018-Apr-29 14:58N 47°35' W 122°20'0 0.0
2018-Apr-29 14:28N 47°35' W 122°20'0 0.0
2018-Apr-29 13:58N 47°35' W 122°20'0 0.0
2018-Apr-29 13:31N 47°35' W 122°20'0 0.0
2018-Apr-29 12:58N 47°35' W 122°20'0 0.0
2018-Apr-29 12:30N 47°35' W 122°20'0 0.0
2018-Apr-29 12:00N 47°35' W 122°20'0 0.0
2018-Apr-29 11:30N 47°35' W 122°20'0 0.0
2018-Apr-29 11:00N 47°35' W 122°20'0 0.0
2018-Apr-29 10:24N 47°35' W 122°20'0 0.0
2018-Apr-29 10:00N 47°35' W 122°20'0 0.0
2018-Apr-29 09:28N 47°35' W 122°20'0 0.0
2018-Apr-29 08:58N 47°35' W 122°20'0 0.0
2018-Apr-29 08:28N 47°35' W 122°20'0 0.0
2018-Apr-29 07:57N 47°35' W 122°20'0 0.0
2018-Apr-29 07:27N 47°35' W 122°20'0 0.0
2018-Apr-29 06:57N 47°35' W 122°20'0 0.0
2018-Apr-29 06:27N 47°35' W 122°20'0 0.0
2018-Apr-29 05:58N 47°35' W 122°20'0 0.0
2018-Apr-29 05:28N 47°35' W 122°20'0 0.0
2018-Apr-29 04:58N 47°35' W 122°20'0 0.0
2018-Apr-29 04:28N 47°35' W 122°20'0 0.0
2018-Apr-29 03:58N 47°35' W 122°20'0 0.0
2018-Apr-29 03:28N 47°35' W 122°20'0 0.0
2018-Apr-29 02:58N 47°35' W 122°20'0 0.0
2018-Apr-29 02:30N 47°35' W 122°20'0 0.0
2018-Apr-29 01:58N 47°35' W 122°20'0 0.0
2018-Apr-29 01:30N 47°35' W 122°20'0 0.0
2018-Apr-29 01:00N 47°35' W 122°20'0 0.0
2018-Apr-29 00:25N 47°35' W 122°20'0 0.0
2018-Apr-28 23:58N 47°35' W 122°20'0 0.0
2018-Apr-28 23:28N 47°35' W 122°20'0 0.0
2018-Apr-28 22:58N 47°35' W 122°20'0 0.0
2018-Apr-28 22:27N 47°35' W 122°20'0 0.0
2018-Apr-28 21:57N 47°35' W 122°20'0 0.0
2018-Apr-28 21:27N 47°35' W 122°20'0 0.0
2018-Apr-28 20:57N 47°35' W 122°20'0 0.0
2018-Apr-28 20:28N 47°35' W 122°20'0 0.0
2018-Apr-28 19:58N 47°35' W 122°20'0 0.0
2018-Apr-28 19:28N 47°35' W 122°20'0 0.0
2018-Apr-28 18:58N 47°35' W 122°20'0 0.0
2018-Apr-28 18:25N 47°35' W 122°20'0 0.0
2018-Apr-28 17:55N 47°35' W 122°20'0 0.0
2018-Apr-28 17:30N 47°35' W 122°20'0 0.0
2018-Apr-28 17:00N 47°35' W 122°20'0 0.0
2018-Apr-28 16:30N 47°35' W 122°20'0 0.0
2018-Apr-28 15:55N 47°35' W 122°20'0 0.0
2018-Apr-28 15:28N 47°35' W 122°20'0 0.0
2018-Apr-28 14:58N 47°35' W 122°20'0 0.0
2018-Apr-28 14:28N 47°35' W 122°20'0 0.0
2018-Apr-28 13:58N 47°35' W 122°20'0 0.0
2018-Apr-28 13:28N 47°35' W 122°20'0 0.0
2018-Apr-28 12:58N 47°35' W 122°20'0 0.0
2018-Apr-28 12:28N 47°35' W 122°20'0 0.0
2018-Apr-28 11:57N 47°35' W 122°20'0 0.0
2018-Apr-28 11:27N 47°35' W 122°20'0 0.0
2018-Apr-28 10:58N 47°35' W 122°20'0 0.0
2018-Apr-28 10:27N 47°35' W 122°20'0 0.0
2018-Apr-28 09:57N 47°35' W 122°20'0 0.0
2018-Apr-28 09:21N 47°35' W 122°20'0 0.0
2018-Apr-28 08:58N 47°35' W 122°20'0 0.0
2018-Apr-28 08:28N 47°35' W 122°20'0 0.0
2018-Apr-28 07:58N 47°35' W 122°20'0 0.0
2018-Apr-28 07:28N 47°35' W 122°20'0 0.0
2018-Apr-28 07:01N 47°35' W 122°20'0 0.0
2018-Apr-28 06:28N 47°35' W 122°20'0 0.0
2018-Apr-28 06:00N 47°35' W 122°20'0 0.0
2018-Apr-28 05:25N 47°35' W 122°20'0 0.0
2018-Apr-28 04:58N 47°35' W 122°20'0 0.0
2018-Apr-28 04:28N 47°35' W 122°20'0 0.0
2018-Apr-28 03:58N 47°35' W 122°20'0 0.0
2018-Apr-28 03:28N 47°35' W 122°20'0 0.0
2018-Apr-28 02:58N 47°35' W 122°20'0 0.0
2018-Apr-28 02:28N 47°35' W 122°20'0 0.0
2018-Apr-28 01:58N 47°35' W 122°20'0 0.0
2018-Apr-28 01:25N 47°35' W 122°20'0 0.0
2018-Apr-28 00:57N 47°35' W 122°20'0 0.0
2018-Apr-28 00:25N 47°35' W 122°20'0 0.0
2018-Apr-27 23:58N 47°35' W 122°20'0 0.0
2018-Apr-27 23:28N 47°35' W 122°20'0 0.0
2018-Apr-27 23:00N 47°35' W 122°20'0 0.0
2018-Apr-27 22:31N 47°35' W 122°20'0 0.0
2018-Apr-27 22:00N 47°35' W 122°20'0 0.0
2018-Apr-27 21:28N 47°35' W 122°20'0 0.0
2018-Apr-27 20:58N 47°35' W 122°20'0 0.0
2018-Apr-27 20:30N 47°35' W 122°20'0 0.0
2018-Apr-27 19:58N 47°35' W 122°20'0 0.0
2018-Apr-27 19:28N 47°35' W 122°20'0 0.0
2018-Apr-27 18:58N 47°35' W 122°20'0 0.0
2018-Apr-27 18:28N 47°35' W 122°20'0 0.0
2018-Apr-27 17:58N 47°35' W 122°20'0 0.0
2018-Apr-27 17:28N 47°35' W 122°20'0 0.0
2018-Apr-27 16:58N 47°35' W 122°20'0 0.0
2018-Apr-27 16:28N 47°35' W 122°20'0 0.0
2018-Apr-27 15:57N 47°35' W 122°20'0 0.0
2018-Apr-27 15:28N 47°35' W 122°20'0 0.0
2018-Apr-27 14:58N 47°35' W 122°20'0 0.0
2018-Apr-27 14:28N 47°35' W 122°20'0 0.0
2018-Apr-27 13:58N 47°35' W 122°20'0 0.0
2018-Apr-27 13:28N 47°35' W 122°20'0 0.0
2018-Apr-27 12:55N 47°35' W 122°20'0 0.0
2018-Apr-27 12:28N 47°35' W 122°20'0 0.0
2018-Apr-27 11:58N 47°35' W 122°20'0 0.0
2018-Apr-27 11:28N 47°35' W 122°20'0 0.0
2018-Apr-27 10:55N 47°35' W 122°20'0 0.0
2018-Apr-27 10:31N 47°35' W 122°20'0 0.0
2018-Apr-27 10:00N 47°35' W 122°20'0 0.0
2018-Apr-27 09:28N 47°35' W 122°20'0 0.0
2018-Apr-27 08:58N 47°35' W 122°20'0 0.0
2018-Apr-27 08:27N 47°35' W 122°20'0 0.0
2018-Apr-27 07:57N 47°35' W 122°20'0 0.0
2018-Apr-27 07:27N 47°35' W 122°20'0 0.0
2018-Apr-27 06:58N 47°35' W 122°20'0 0.0
2018-Apr-27 06:28N 47°35' W 122°20'0 0.0
2018-Apr-27 05:58N 47°35' W 122°20'0 0.0
2018-Apr-27 05:27N 47°35' W 122°20'0 0.0
2018-Apr-27 04:58N 47°35' W 122°20'0 0.0
2018-Apr-27 04:22N 47°35' W 122°20'0 0.0
2018-Apr-27 03:58N 47°35' W 122°20'0 0.0
2018-Apr-27 03:28N 47°35' W 122°20'0 0.0
2018-Apr-27 02:58N 47°35' W 122°20'0 0.0
2018-Apr-27 02:28N 47°35' W 122°20'0 0.0
2018-Apr-27 02:00N 47°35' W 122°20'0 0.0
2018-Apr-27 01:28N 47°35' W 122°20'0 0.0
2018-Apr-27 00:58N 47°35' W 122°20'0 0.0
2018-Apr-27 00:28N 47°35' W 122°20'0 0.0
2018-Apr-26 23:58N 47°35' W 122°20'0 0.0
2018-Apr-26 23:28N 47°35' W 122°20'0 0.0
2018-Apr-26 22:58N 47°35' W 122°20'0 0.0
2018-Apr-26 22:25N 47°35' W 122°20'0 0.0
2018-Apr-26 21:57N 47°35' W 122°20'0 0.0
2018-Apr-26 21:28N 47°35' W 122°20'0 0.0
2018-Apr-26 20:58N 47°35' W 122°20'0 0.0
2018-Apr-26 20:25N 47°35' W 122°20'0 0.0
2018-Apr-26 19:58N 47°35' W 122°20'0 0.0
2018-Apr-26 19:28N 47°35' W 122°20'0 0.0
2018-Apr-26 18:58N 47°35' W 122°20'0 0.0
2018-Apr-26 18:25N 47°35' W 122°20'0 0.0
2018-Apr-26 17:58N 47°35' W 122°20'0 0.0
2018-Apr-26 17:28N 47°35' W 122°20'0 0.0
2018-Apr-26 16:58N 47°35' W 122°20'0 0.0
2018-Apr-26 16:31N 47°35' W 122°20'0 0.0
2018-Apr-26 16:00N 47°35' W 122°20'0 0.0
2018-Apr-26 15:28N 47°35' W 122°20'0 0.0
2018-Apr-26 14:58N 47°35' W 122°20'0 0.0
2018-Apr-26 14:28N 47°35' W 122°20'0 0.0
2018-Apr-26 13:58N 47°35' W 122°20'0 0.0
2018-Apr-26 13:27N 47°35' W 122°20'0 0.0
2018-Apr-26 12:58N 47°35' W 122°20'0 0.0
2018-Apr-26 12:28N 47°35' W 122°20'0 0.0
2018-Apr-26 11:55N 47°35' W 122°20'0 0.0
2018-Apr-26 11:28N 47°35' W 122°20'0 0.0
2018-Apr-26 10:55N 47°35' W 122°20'0 0.0
2018-Apr-26 10:28N 47°35' W 122°20'0 0.0
2018-Apr-26 09:58N 47°35' W 122°20'0 0.0
2018-Apr-26 09:25N 47°35' W 122°20'0 0.0
2018-Apr-26 08:58N 47°35' W 122°20'0 0.0
2018-Apr-26 08:28N 47°35' W 122°20'0 0.0
2018-Apr-26 07:58N 47°35' W 122°20'0 0.0
2018-Apr-26 07:28N 47°35' W 122°20'0 0.0
2018-Apr-26 06:58N 47°35' W 122°20'0 0.0
2018-Apr-26 06:28N 47°35' W 122°20'0 0.0
2018-Apr-26 05:58N 47°35' W 122°20'0 0.0
2018-Apr-26 05:28N 47°35' W 122°20'0 0.0
2018-Apr-26 04:58N 47°35' W 122°20'0 0.0
2018-Apr-26 04:28N 47°35' W 122°20'0 0.0
2018-Apr-26 03:55N 47°35' W 122°20'0 0.0
2018-Apr-26 03:25N 47°35' W 122°20'0 0.0
2018-Apr-26 02:58N 47°35' W 122°20'0 0.0
2018-Apr-26 02:28N 47°35' W 122°20'0 0.0
2018-Apr-26 01:58N 47°35' W 122°20'0 0.0
2018-Apr-26 01:25N 47°35' W 122°20'0 0.0
2018-Apr-26 00:58N 47°35' W 122°20'0 0.0
2018-Apr-26 00:28N 47°35' W 122°20'0 0.0
2018-Apr-25 23:58N 47°35' W 122°20'0 0.0
2018-Apr-25 23:28N 47°35' W 122°20'0 0.0
2018-Apr-25 22:58N 47°35' W 122°20'0 0.0
2018-Apr-25 22:28N 47°35' W 122°20'0 0.0
2018-Apr-25 21:58N 47°35' W 122°20'0 0.0
2018-Apr-25 21:28N 47°35' W 122°20'0 0.0
2018-Apr-25 20:58N 47°35' W 122°20'0 0.0
2018-Apr-25 20:28N 47°35' W 122°20'0 0.0
2018-Apr-25 19:58N 47°35' W 122°20'0 0.0
2018-Apr-25 19:25N 47°35' W 122°20'0 0.0
2018-Apr-25 18:58N 47°35' W 122°20'0 0.0
2018-Apr-25 18:28N 47°35' W 122°20'0 0.0
2018-Apr-25 17:58N 47°35' W 122°20'0 0.0
2018-Apr-25 17:25N 47°35' W 122°20'0 0.0
2018-Apr-25 16:58N 47°35' W 122°20'0 0.0
2018-Apr-25 16:28N 47°35' W 122°20'0 0.0
2018-Apr-25 15:58N 47°35' W 122°20'0 0.0
2018-Apr-25 15:28N 47°35' W 122°20'0 0.0
2018-Apr-25 14:55N 47°35' W 122°20'0 0.0
2018-Apr-25 14:28N 47°35' W 122°20'0 0.0
2018-Apr-25 13:58N 47°35' W 122°20'0 0.0
2018-Apr-25 13:28N 47°35' W 122°20'0 0.0
2018-Apr-25 12:58N 47°35' W 122°20'0 0.0
2018-Apr-25 12:25N 47°35' W 122°20'0 0.0
2018-Apr-25 11:52N 47°35' W 122°20'0 0.0
2018-Apr-25 11:28N 47°35' W 122°20'0 0.0
2018-Apr-25 10:58N 47°35' W 122°20'0 0.0
2018-Apr-25 10:25N 47°35' W 122°20'0 0.0
2018-Apr-25 09:58N 47°35' W 122°20'  

Dump ship's entire track history